This is the latest recevied weather packets stored in our database for station/object K1JO. If no packets are shown the sender has not sent any weather packets the latest 1 day(s).
| Time | Temp. | Humidity | Pressure | Rain* | Wind** | Luminosity | Snow |
|---|---|---|---|---|---|---|---|
| 1778012839 | 20° C | 62% | 1000.1 hPa | 0 mm | 1.79 m/s, 148° | 376 W/m² | - |
| 1778012535 | 20° C | 62% | 1000.2 hPa | 0 mm | 0.89 m/s, 290° | 300 W/m² | - |
| 1778012232 | 20.56° C | 61% | 1000.4 hPa | 0 mm | 5.36 m/s, 154° | 301 W/m² | - |
| 1778011930 | 20.56° C | 61% | 1000.4 hPa | 0 mm | 2.24 m/s, 148° | 387 W/m² | - |
| 1778011628 | 21.11° C | 59% | 1000.6 hPa | 0 mm | 2.24 m/s, 239° | 416 W/m² | - |
| 1778011324 | 21.11° C | 60% | 1000.7 hPa | 0 mm | 1.79 m/s, 358° | 357 W/m² | - |
| 1778011020 | 21.11° C | 59% | 1000.5 hPa | 0 mm | 4.02 m/s, 300° | 450 W/m² | - |
| 1778010718 | 20.56° C | 62% | 1000.7 hPa | 0 mm | 0.89 m/s, 297° | 440 W/m² | - |
| 1778010415 | 20.56° C | 61% | 1000.8 hPa | 0 mm | 1.79 m/s, 277° | 466 W/m² | - |
| 1778010111 | 20.56° C | 61% | 1000.9 hPa | 0 mm | 2.24 m/s, 168° | 466 W/m² | - |
| 1778009808 | 21.11° C | 58% | 1000.8 hPa | 0 mm | 4.02 m/s, 261° | 511 W/m² | - |
| 1778009504 | 21.11° C | 59% | 1000.7 hPa | 0 mm | 0.45 m/s, 333° | 521 W/m² | - |
| 1778009203 | 20.56° C | 60% | 1000.7 hPa | 0 mm | 4.02 m/s, 157° | 510 W/m² | - |
| 1778008901 | 21.67° C | 59% | 1000.8 hPa | 0 mm | 1.34 m/s, 179° | 490 W/m² | - |
| 1778008599 | 20.56° C | 59% | 1000.9 hPa | 0 mm | 3.13 m/s, 260° | 557 W/m² | - |
| 1778008297 | 21.11° C | 59% | 1000.9 hPa | 0 mm | 0.89 m/s, 346° | 551 W/m² | - |
| 1778007992 | 20.56° C | 60% | 1001 hPa | 0 mm | 2.24 m/s, 178° | 574 W/m² | - |
| 1778007687 | 21.11° C | 59% | 1001 hPa | 0 mm | 0.89 m/s, 18° | 530 W/m² | - |
| 1778007384 | 21.11° C | 58% | 1001 hPa | 0 mm | 1.34 m/s, 191° | 573 W/m² | - |
| 1778007080 | 21.67° C | 59% | 1000.9 hPa | 0 mm | 2.68 m/s, 217° | 561 W/m² | - |
| 1778006777 | 21.67° C | 58% | 1000.8 hPa | 0 mm | 1.79 m/s, 244° | 603 W/m² | - |
| 1778006474 | 21.67° C | 56% | 1000.7 hPa | 0 mm | 2.68 m/s, 185° | 584 W/m² | - |
| 1778006170 | 21.11° C | 58% | 1001.1 hPa | 0 mm | 3.13 m/s, 212° | 628 W/m² | - |
| 1778005869 | 21.11° C | 57% | 1001 hPa | 0 mm | 1.34 m/s, 160° | 627 W/m² | - |
| 1778005564 | 21.11° C | 57% | 1001.2 hPa | 0 mm | 1.34 m/s, 149° | 634 W/m² | - |
* Rain latest hour (hover to see other rain measurements)
** Current wind speed in m/s (hover to see current wind gust speed)